KGXY/GXY METAR and TAF weather

Enter ICAO airport designator
Station Type Date Time Source
KGXY METAR 2021/08/02 02:56 UTC NOAA

KGXY 020256Z 05004KT 10SM CLR 21/13 A3032 RMK AO2 SLP235 T02060133 53002


Station Type Date Time Source
KGXY Decoded METAR 2021/08/02 02:56 UTC NOAA

Greeley, Greeley-Weld County Airport, CO, United States (KGXY) 40-26N 104-38W
Aug 01, 2021 - 10:56 PM EDT / 2021.08.02 0256 UTC
Wind: from the NE (050 degrees) at 5 MPH (4 KT):0
Visibility: 10 mile(s):0
Sky conditions: clear
Temperature: 69.1 F (20.6 C)
Dew Point: 55.9 F (13.3 C)
Relative Humidity: 62%
Pressure (altimeter): 30.32 in. Hg (1026 hPa)
Pressure tendency: 0.01 inches (0.2 hPa) higher than three hours ago
ob: KGXY 020256Z 05004KT 10SM CLR 21/13 A3032 RMK AO2 SLP235 T02060133 53002
cycle: 3

Station Type Date Time Source
KGXY TAF UTC NOAA

Error!

Example: see airport list